createdAt,value
2023-03-30T00:01:22.667Z,2.30
2023-03-30T00:03:51.363Z,2.20
2023-03-30T00:06:23.130Z,2.00
2023-03-30T00:08:57.578Z,2.28
2023-03-30T00:11:27.433Z,2.70
2023-03-30T00:13:56.357Z,2.20
2023-03-30T00:16:24.650Z,1.88
2023-03-30T00:18:52.898Z,2.30
2023-03-30T00:21:24.549Z,2.50
2023-03-30T00:23:52.857Z,2.10
2023-03-30T00:26:36.654Z,2.58
2023-03-30T00:29:05.012Z,2.30
2023-03-30T00:31:33.675Z,2.05
2023-03-30T00:34:02.376Z,2.30
2023-03-30T00:36:37.137Z,2.10
2023-03-30T00:39:06.666Z,2.88
2023-03-30T00:41:37.289Z,2.50
2023-03-30T00:44:08.074Z,2.60
2023-03-30T00:46:36.518Z,2.90
2023-03-30T00:49:08.769Z,2.83
2023-03-30T00:51:41.707Z,2.92
2023-03-30T00:54:13.176Z,3.00
2023-03-30T00:56:42.188Z,2.88
2023-03-30T00:59:10.597Z,2.33
2023-03-30T01:01:40.321Z,2.35
2023-03-30T01:04:10.991Z,2.30
2023-03-30T01:06:43.631Z,2.70
2023-03-30T01:09:12.136Z,2.50
2023-03-30T01:11:40.588Z,2.17
2023-03-30T01:14:12.742Z,2.65
2023-03-30T01:16:48.949Z,2.60
2023-03-30T01:19:43.856Z,2.45
2023-03-30T01:22:38.530Z,2.50
2023-03-30T01:25:36.727Z,2.55
2023-03-30T01:28:17.888Z,2.53
2023-03-30T01:31:18.555Z,2.75
2023-03-30T01:34:08.093Z,2.40
2023-03-30T01:37:02.548Z,2.90
2023-03-30T01:42:14.088Z,2.45
2023-03-30T01:44:50.201Z,2.80
2023-03-30T01:47:24.153Z,2.78
2023-03-30T01:49:58.637Z,2.92
2023-03-30T01:52:32.058Z,2.92
2023-03-30T01:55:06.032Z,3.47
2023-03-30T01:57:38.827Z,2.45
2023-03-30T02:00:14.849Z,3.38
2023-03-30T02:02:47.221Z,2.88
2023-03-30T02:05:18.085Z,2.88
2023-03-30T02:07:51.508Z,2.88
2023-03-30T02:10:24.331Z,2.50
2023-03-30T02:12:54.145Z,3.40
2023-03-30T02:15:23.164Z,2.75
2023-03-30T02:17:51.806Z,2.63
2023-03-30T02:20:20.237Z,2.80
2023-03-30T02:22:49.464Z,2.70
2023-03-30T02:25:17.811Z,2.97
2023-03-30T02:27:48.414Z,2.30
2023-03-30T02:30:17.175Z,2.95
2023-03-30T02:32:51.970Z,2.50
2023-03-30T02:35:38.583Z,2.67
2023-03-30T02:38:32.694Z,2.72
2023-03-30T02:41:11.941Z,2.45
2023-03-30T02:43:48.624Z,2.60
2023-03-30T02:46:32.669Z,2.15
2023-03-30T02:49:14.269Z,2.30
2023-03-30T02:51:48.322Z,2.60
2023-03-30T02:54:25.671Z,2.70
2023-03-30T02:57:04.553Z,2.92
2023-03-30T02:59:42.392Z,2.42
2023-03-30T03:02:15.462Z,2.28
2023-03-30T03:04:46.543Z,2.40
2023-03-30T03:07:17.203Z,2.40
2023-03-30T03:09:45.564Z,2.58
2023-03-30T03:12:13.913Z,4.90
2023-03-30T03:14:45.438Z,3.65
2023-03-30T03:17:14.011Z,6.45
2023-03-30T03:19:42.381Z,6.68
2023-03-30T03:22:10.741Z,16.30
2023-03-30T03:24:39.781Z,17.42
2023-03-30T03:27:08.933Z,12.20
2023-03-30T03:29:37.556Z,9.90
2023-03-30T03:32:07.342Z,8.43
2023-03-30T03:34:35.769Z,4.88
2023-03-30T03:37:03.998Z,3.58
2023-03-30T03:39:33.090Z,3.00
2023-03-30T03:42:01.395Z,3.33
2023-03-30T03:44:29.692Z,3.72
2023-03-30T03:46:58.012Z,3.38
2023-03-30T03:49:27.714Z,3.50
2023-03-30T03:51:55.911Z,5.72
2023-03-30T03:54:24.304Z,5.13
2023-03-30T03:56:52.648Z,5.78
2023-03-30T03:59:21.037Z,4.70
2023-03-30T04:01:49.458Z,4.72
2023-03-30T04:04:17.679Z,4.00
2023-03-30T04:06:54.615Z,3.78
2023-03-30T04:09:23.275Z,4.00
2023-03-30T04:11:51.874Z,3.10
2023-03-30T04:14:20.064Z,2.83
2023-03-30T04:16:49.232Z,2.80
2023-03-30T04:19:17.688Z,2.55
2023-03-30T04:21:47.948Z,2.80
2023-03-30T04:24:16.267Z,3.15
2023-03-30T04:26:49.062Z,2.80
2023-03-30T04:29:17.964Z,3.45
2023-03-30T04:31:46.968Z,3.30
2023-03-30T04:34:15.217Z,3.17
2023-03-30T04:36:44.604Z,3.17
2023-03-30T04:39:20.816Z,2.83
2023-03-30T04:41:54.424Z,3.50
2023-03-30T04:44:22.454Z,3.15
2023-03-30T04:46:53.756Z,2.85
2023-03-30T04:49:22.058Z,3.08
2023-03-30T04:51:50.038Z,3.30
2023-03-30T04:54:19.518Z,3.60
2023-03-30T04:56:54.745Z,2.90
2023-03-30T04:59:28.462Z,3.10
2023-03-30T05:01:56.563Z,3.63
2023-03-30T05:04:24.925Z,3.58
2023-03-30T05:06:52.920Z,3.80
2023-03-30T05:09:22.951Z,3.78
2023-03-30T05:11:56.925Z,3.50
2023-03-30T05:14:24.917Z,5.32
2023-03-30T05:16:53.080Z,4.65
2023-03-30T05:19:22.127Z,4.40
2023-03-30T05:21:50.652Z,4.07
2023-03-30T05:24:19.009Z,3.90
2023-03-30T05:26:49.156Z,3.50
2023-03-30T05:29:17.868Z,3.40
2023-03-30T05:32:27.716Z,3.42
2023-03-30T05:34:56.273Z,3.38
2023-03-30T05:37:24.571Z,3.33
2023-03-30T05:39:52.728Z,3.13
2023-03-30T05:42:21.606Z,3.80
2023-03-30T05:44:49.895Z,3.10
2023-03-30T05:47:18.033Z,3.47
2023-03-30T05:49:54.933Z,3.15
2023-03-30T05:52:23.931Z,2.85
2023-03-30T05:54:51.951Z,3.08
2023-03-30T05:57:21.221Z,3.60
2023-03-30T05:59:49.496Z,2.67
2023-03-30T06:02:18.023Z,3.72
2023-03-30T06:04:47.770Z,2.78
2023-03-30T06:07:17.912Z,2.55
2023-03-30T06:09:46.236Z,4.68
2023-03-30T06:12:14.393Z,4.88
2023-03-30T06:14:42.839Z,5.07
2023-03-30T06:17:12.174Z,4.80
2023-03-30T06:19:40.479Z,4.93
2023-03-30T06:22:17.915Z,4.93
2023-03-30T06:24:45.961Z,5.55
2023-03-30T06:27:14.233Z,4.82
2023-03-30T06:29:43.572Z,9.05
2023-03-30T06:32:11.839Z,5.80
2023-03-30T06:34:39.814Z,5.47
2023-03-30T06:37:09.088Z,5.78
2023-03-30T06:39:38.587Z,4.60
2023-03-30T06:42:07.011Z,3.92
2023-03-30T06:44:35.276Z,3.40
2023-03-30T06:47:03.412Z,3.53
2023-03-30T06:49:31.395Z,4.70
2023-03-30T06:52:01.565Z,3.80
2023-03-30T06:54:31.874Z,3.33
2023-03-30T06:57:01.287Z,2.97
2023-03-30T06:59:29.198Z,4.25
2023-03-30T07:01:57.128Z,4.22
2023-03-30T07:04:25.168Z,4.25
2023-03-30T07:06:57.921Z,4.03
2023-03-30T07:09:26.272Z,3.83
2023-03-30T07:11:56.500Z,4.68
2023-03-30T07:14:26.010Z,3.92
2023-03-30T07:16:54.160Z,4.38
2023-03-30T07:19:22.069Z,3.85
2023-03-30T07:21:49.953Z,4.07
2023-03-30T07:24:17.892Z,4.20
2023-03-30T07:26:45.853Z,4.55
2023-03-30T07:29:15.436Z,4.10
2023-03-30T07:31:45.062Z,3.60
2023-03-30T07:34:13.011Z,3.58
2023-03-30T07:36:41.196Z,3.90
2023-03-30T07:39:09.110Z,4.53
2023-03-30T07:41:36.934Z,4.43
2023-03-30T07:44:04.812Z,3.85
2023-03-30T07:46:32.680Z,3.72
2023-03-30T07:49:01.906Z,3.17
2023-03-30T07:51:30.049Z,3.78
2023-03-30T07:53:57.897Z,4.38
2023-03-30T07:56:25.839Z,3.63
2023-03-30T07:58:54.226Z,3.33
2023-03-30T08:01:22.141Z,2.92
2023-03-30T08:03:50.848Z,3.45
2023-03-30T08:06:20.215Z,2.92
2023-03-30T08:08:48.276Z,3.30
2023-03-30T08:11:16.490Z,3.58
2023-03-30T08:13:44.744Z,3.78
2023-03-30T08:16:13.128Z,3.30
2023-03-30T08:18:42.377Z,3.45
2023-03-30T08:21:13.568Z,4.00
2023-03-30T08:23:42.881Z,3.85
2023-03-30T08:26:10.820Z,4.93
2023-03-30T08:28:39.283Z,3.75
2023-03-30T08:31:08.353Z,4.07
2023-03-30T08:33:36.415Z,4.80
2023-03-30T08:36:06.251Z,4.82
2023-03-30T08:38:36.805Z,4.95
2023-03-30T08:41:36.448Z,3.75
2023-03-30T08:44:10.559Z,4.28
2023-03-30T08:46:42.416Z,3.80
2023-03-30T08:49:17.903Z,3.25
2023-03-30T08:51:46.771Z,3.15
2023-03-30T08:54:17.467Z,3.97
2023-03-30T08:56:58.169Z,3.33
2023-03-30T08:59:36.720Z,3.83
2023-03-30T09:02:22.275Z,4.28
2023-03-30T09:05:05.981Z,4.13
2023-03-30T09:07:39.092Z,3.90
2023-03-30T09:10:13.222Z,3.58
2023-03-30T09:12:48.042Z,3.53
2023-03-30T09:15:19.508Z,4.07
2023-03-30T09:17:50.688Z,3.25
2023-03-30T09:20:24.885Z,4.55
2023-03-30T09:22:55.714Z,3.75
2023-03-30T09:25:31.131Z,4.10
2023-03-30T09:28:09.622Z,4.43
2023-03-30T09:30:41.962Z,3.20
2023-03-30T09:33:28.216Z,4.32
2023-03-30T09:36:12.780Z,3.90
2023-03-30T09:38:43.985Z,3.72
2023-03-30T09:41:33.034Z,3.95
2023-03-30T09:44:04.266Z,3.80
2023-03-30T09:46:32.944Z,3.40
2023-03-30T09:49:15.128Z,3.60
2023-03-30T09:51:56.820Z,3.20
2023-03-30T09:54:26.198Z,3.50
2023-03-30T09:56:57.092Z,4.68
2023-03-30T09:59:33.604Z,3.75
2023-03-30T10:02:18.699Z,3.03
2023-03-30T10:05:00.261Z,4.07
2023-03-30T10:07:30.960Z,3.28
2023-03-30T10:10:01.163Z,3.63
2023-03-30T10:12:30.889Z,3.50
2023-03-30T10:15:04.246Z,3.25
2023-03-30T10:17:33.241Z,3.40
2023-03-30T10:20:24.260Z,3.30
2023-03-30T10:22:54.794Z,3.45
2023-03-30T10:25:25.189Z,3.20
2023-03-30T10:27:58.251Z,3.25
2023-03-30T10:30:29.433Z,2.70
2023-03-30T10:33:00.814Z,2.83
2023-03-30T10:35:35.596Z,2.63
2023-03-30T10:38:05.277Z,3.13
2023-03-30T10:40:37.805Z,2.42
2023-03-30T10:43:12.063Z,3.00
2023-03-30T10:46:12.803Z,2.70
2023-03-30T10:49:00.361Z,2.63
2023-03-30T10:51:46.617Z,2.72
2023-03-30T10:54:21.616Z,2.60
2023-03-30T10:56:53.378Z,2.65
2023-03-30T10:59:38.375Z,2.70
2023-03-30T11:02:41.492Z,2.55
2023-03-30T11:05:15.682Z,2.45
2023-03-30T11:07:48.312Z,2.70
2023-03-30T11:10:29.396Z,3.38
2023-03-30T11:13:12.550Z,2.70
2023-03-30T11:18:56.879Z,2.83
2023-03-30T11:21:36.894Z,2.78
2023-03-30T11:24:29.799Z,2.47
2023-03-30T11:27:06.799Z,3.20
2023-03-30T11:29:43.214Z,2.78
2023-03-30T11:32:26.218Z,2.60
2023-03-30T11:35:15.220Z,2.72
2023-03-30T11:37:58.012Z,2.80
2023-03-30T11:40:28.630Z,2.63
2023-03-30T11:42:57.336Z,2.88
2023-03-30T11:45:44.982Z,2.20
2023-03-30T11:48:46.989Z,2.60
2023-03-30T11:51:39.121Z,2.65
2023-03-30T11:54:33.939Z,2.38
2023-03-30T11:57:11.249Z,2.58
2023-03-30T11:59:50.192Z,2.47
2023-03-30T12:02:28.174Z,2.67
2023-03-30T12:05:01.453Z,2.75
2023-03-30T12:07:44.009Z,2.63
2023-03-30T12:13:04.911Z,2.50
2023-03-30T12:15:44.125Z,2.65
2023-03-30T12:18:28.158Z,1.95
2023-03-30T12:23:55.698Z,2.25
2023-03-30T12:26:29.187Z,2.67
2023-03-30T12:32:07.795Z,2.83
2023-03-30T12:34:41.771Z,2.70
2023-03-30T12:37:17.160Z,2.60
2023-03-30T12:39:56.203Z,2.63
2023-03-30T12:42:35.595Z,2.70
2023-03-30T12:45:31.888Z,2.70
2023-03-30T12:48:29.617Z,2.53
2023-03-30T12:51:13.353Z,2.00
2023-03-30T12:54:19.561Z,2.17
2023-03-30T12:56:58.060Z,2.88
2023-03-30T12:59:44.544Z,2.22
2023-03-30T13:02:48.018Z,2.65
2023-03-30T13:05:26.702Z,2.40
2023-03-30T13:07:57.871Z,2.70
2023-03-30T13:10:52.953Z,2.20
2023-03-30T13:13:47.700Z,2.97
2023-03-30T13:16:16.168Z,2.20
2023-03-30T13:18:57.651Z,1.98
2023-03-30T13:21:27.216Z,2.22
2023-03-30T13:24:07.603Z,2.22
2023-03-30T13:26:45.140Z,1.92
2023-03-30T13:29:20.161Z,2.10
2023-03-30T13:32:14.775Z,1.85
2023-03-30T13:35:08.143Z,1.77
2023-03-30T13:37:54.960Z,1.75
2023-03-30T13:40:40.305Z,1.60
2023-03-30T13:43:19.948Z,1.60
2023-03-30T13:46:00.430Z,1.50
2023-03-30T13:48:52.728Z,1.50
2023-03-30T13:51:35.155Z,2.03
2023-03-30T13:54:06.643Z,1.38
2023-03-30T13:56:45.171Z,1.63
2023-03-30T13:59:18.874Z,1.70
2023-03-30T14:04:37.364Z,2.15
2023-03-30T14:07:25.265Z,1.17
2023-03-30T14:10:12.746Z,1.20
2023-03-30T14:13:07.280Z,1.33
2023-03-30T14:15:55.510Z,0.80
2023-03-30T14:18:50.190Z,0.55
2023-03-30T14:21:28.644Z,0.57
2023-03-30T14:23:57.064Z,0.70
2023-03-30T14:26:28.080Z,0.70
2023-03-30T14:28:57.804Z,0.80
2023-03-30T14:31:30.844Z,0.45
2023-03-30T14:34:05.420Z,0.60
2023-03-30T14:36:33.796Z,0.80
2023-03-30T14:39:03.653Z,0.60
2023-03-30T14:44:51.185Z,0.68
2023-03-30T14:47:41.558Z,1.00
2023-03-30T14:50:50.754Z,0.90
2023-03-30T14:53:29.231Z,0.90
2023-03-30T14:56:05.154Z,0.95
2023-03-30T14:59:00.319Z,1.30
2023-03-30T15:01:52.621Z,1.10
2023-03-30T15:04:33.628Z,1.15
2023-03-30T15:07:12.065Z,1.40
2023-03-30T15:10:12.386Z,1.10
2023-03-30T15:12:47.710Z,1.00
2023-03-30T15:15:34.832Z,1.10
2023-03-30T15:18:36.799Z,1.25
2023-03-30T15:21:08.435Z,0.75
2023-03-30T15:23:42.655Z,1.15
2023-03-30T15:26:25.248Z,0.82
2023-03-30T15:28:57.946Z,1.30
2023-03-30T15:31:30.322Z,1.15
2023-03-30T15:34:02.174Z,1.67
2023-03-30T15:36:48.013Z,1.88
2023-03-30T15:39:26.063Z,0.90
2023-03-30T15:42:05.677Z,1.02
2023-03-30T15:44:37.698Z,0.90
2023-03-30T15:47:25.725Z,1.30
2023-03-30T15:49:56.571Z,1.10
2023-03-30T15:52:33.362Z,1.35
2023-03-30T15:55:09.941Z,0.90
2023-03-30T15:57:45.356Z,1.92
2023-03-30T16:00:22.052Z,1.20
2023-03-30T16:03:04.273Z,1.45
2023-03-30T16:05:35.209Z,1.45
2023-03-30T16:08:05.012Z,1.50
2023-03-30T16:10:35.300Z,2.20
2023-03-30T16:13:03.311Z,1.95
2023-03-30T16:15:41.008Z,3.13
2023-03-30T16:18:11.859Z,2.65
2023-03-30T16:20:39.975Z,2.35
2023-03-30T16:23:09.384Z,1.45
2023-03-30T16:25:45.332Z,1.25
2023-03-30T16:28:17.466Z,1.25
2023-03-30T16:30:47.953Z,2.00
2023-03-30T16:33:16.393Z,1.60
2023-03-30T16:35:47.616Z,1.33
2023-03-30T16:38:18.838Z,1.10
2023-03-30T16:40:51.465Z,1.40
2023-03-30T16:43:19.546Z,1.48
2023-03-30T16:45:47.567Z,1.17
2023-03-30T16:48:18.518Z,1.60
2023-03-30T16:50:48.046Z,2.35
2023-03-30T16:53:16.527Z,1.52
2023-03-30T16:55:49.967Z,2.20
2023-03-30T16:58:17.876Z,2.10
2023-03-30T17:00:47.839Z,1.90
2023-03-30T17:03:16.586Z,1.75
2023-03-30T17:05:48.322Z,2.35
2023-03-30T17:08:21.710Z,6.30
2023-03-30T17:10:52.642Z,6.05
2023-03-30T17:13:20.946Z,21.25
2023-03-30T17:15:48.841Z,9.50
2023-03-30T17:18:21.412Z,5.00
2023-03-30T17:20:51.941Z,7.25
2023-03-30T17:23:22.093Z,5.88
2023-03-30T17:25:53.260Z,4.80
2023-03-30T17:28:26.256Z,3.40
2023-03-30T17:30:58.656Z,3.20
2023-03-30T17:33:27.149Z,3.95
2023-03-30T17:35:57.233Z,3.53
2023-03-30T17:38:27.131Z,2.97
2023-03-30T17:40:58.281Z,1.58
2023-03-30T17:43:26.362Z,1.40
2023-03-30T17:45:58.433Z,1.60
2023-03-30T17:48:26.380Z,1.90
2023-03-30T17:50:54.250Z,3.65
2023-03-30T17:53:23.390Z,8.73
2023-03-30T17:55:53.027Z,2.38
2023-03-30T17:58:36.685Z,1.77
2023-03-30T18:01:07.396Z,1.38
2023-03-30T18:03:38.568Z,2.25
2023-03-30T18:06:07.243Z,13.57
2023-03-30T18:08:36.253Z,6.07
2023-03-30T18:11:04.952Z,2.28
2023-03-30T18:13:34.962Z,2.10
2023-03-30T18:16:03.515Z,13.38
2023-03-30T18:18:32.660Z,16.30
2023-03-30T18:21:03.715Z,14.23
2023-03-30T18:23:33.610Z,11.82
2023-03-30T18:26:10.248Z,8.13
2023-03-30T18:28:43.754Z,6.05
2023-03-30T18:31:12.805Z,3.42
2023-03-30T18:33:41.241Z,1.90
2023-03-30T18:36:12.566Z,3.53
2023-03-30T18:38:41.310Z,3.53
2023-03-30T18:41:11.539Z,3.10
2023-03-30T18:43:41.648Z,4.50
2023-03-30T18:46:11.362Z,3.85
2023-03-30T18:48:40.608Z,3.67
2023-03-30T18:51:08.852Z,2.92
2023-03-30T18:53:37.546Z,2.70
2023-03-30T18:56:06.737Z,2.33
2023-03-30T18:58:41.491Z,2.30
2023-03-30T19:01:12.924Z,8.02
2023-03-30T19:03:41.915Z,3.78
2023-03-30T19:06:11.769Z,3.85
2023-03-30T19:08:43.686Z,2.10
2023-03-30T19:11:11.980Z,2.22
2023-03-30T19:13:40.182Z,2.25
2023-03-30T19:16:09.223Z,2.22
2023-03-30T19:18:38.911Z,2.50
2023-03-30T19:21:07.525Z,2.50
2023-03-30T19:23:36.095Z,2.33
2023-03-30T19:29:03.197Z,2.00
2023-03-30T19:31:31.509Z,1.83
2023-03-30T19:34:01.181Z,1.67
2023-03-30T19:36:29.617Z,2.10
2023-03-30T19:38:57.824Z,2.80
2023-03-30T19:41:26.698Z,2.33
2023-03-30T19:43:54.897Z,2.80
2023-03-30T19:46:23.147Z,2.50
2023-03-30T19:48:53.253Z,2.95
2023-03-30T19:51:23.108Z,2.28
2023-03-30T19:54:00.231Z,1.98
2023-03-30T19:56:28.485Z,2.15
2023-03-30T19:59:00.723Z,1.75
2023-03-30T20:01:29.079Z,3.25
2023-03-30T20:03:59.858Z,3.20
2023-03-30T20:06:29.949Z,4.30
2023-03-30T20:08:58.175Z,5.70
2023-03-30T20:11:26.396Z,4.07
2023-03-30T20:13:55.509Z,2.85
2023-03-30T20:16:28.371Z,2.20
2023-03-30T20:18:57.799Z,2.13
2023-03-30T20:21:27.373Z,2.53
2023-03-30T20:23:58.836Z,1.90
2023-03-30T20:26:29.320Z,1.95
2023-03-30T20:28:57.901Z,1.73
2023-03-30T20:31:26.270Z,2.08
2023-03-30T20:33:54.604Z,1.30
2023-03-30T20:36:25.934Z,1.63
2023-03-30T20:38:55.132Z,1.90
2023-03-30T20:41:40.630Z,1.63
2023-03-30T20:44:32.519Z,2.00
2023-03-30T20:47:16.040Z,2.03
2023-03-30T20:49:50.497Z,1.77
2023-03-30T20:52:18.949Z,2.65
2023-03-30T20:55:12.690Z,1.50
2023-03-30T20:57:43.005Z,2.22
2023-03-30T21:00:12.489Z,1.85
2023-03-30T21:02:40.792Z,1.77
2023-03-30T21:05:09.396Z,1.50
2023-03-30T21:07:42.241Z,1.45
2023-03-30T21:10:10.850Z,1.20
2023-03-30T21:12:39.117Z,1.00
2023-03-30T21:15:09.399Z,1.17
2023-03-30T21:17:37.749Z,0.98
2023-03-30T21:20:08.094Z,1.10
2023-03-30T21:22:36.723Z,1.05
2023-03-30T21:25:05.417Z,0.90
2023-03-30T21:27:33.620Z,1.00
2023-03-30T21:30:01.879Z,1.17
2023-03-30T21:32:34.686Z,0.93
2023-03-30T21:35:15.562Z,1.00
2023-03-30T21:37:43.782Z,1.20
2023-03-30T21:40:12.650Z,1.27
2023-03-30T21:42:40.908Z,0.95
2023-03-30T21:45:11.630Z,1.23
2023-03-30T21:47:41.603Z,0.90
2023-03-30T21:50:10.178Z,0.90
2023-03-30T21:52:38.422Z,0.98
2023-03-30T21:55:07.092Z,1.30
2023-03-30T21:57:35.316Z,1.00
2023-03-30T22:00:05.294Z,0.90
2023-03-30T22:02:33.661Z,1.30
2023-03-30T22:05:06.296Z,1.30
2023-03-30T22:07:34.544Z,1.00
2023-03-30T22:10:03.551Z,1.38
2023-03-30T22:12:33.814Z,1.15
2023-03-30T22:15:02.077Z,1.50
2023-03-30T22:17:35.250Z,1.73
2023-03-30T22:20:03.576Z,1.63
2023-03-30T22:22:33.262Z,1.35
2023-03-30T22:25:01.483Z,1.52
2023-03-30T22:27:29.689Z,1.30
2023-03-30T22:29:57.896Z,1.38
2023-03-30T22:32:26.199Z,1.80
2023-03-30T22:34:54.496Z,1.33
2023-03-30T22:37:22.693Z,1.30
2023-03-30T22:39:52.280Z,1.50
2023-03-30T22:42:20.739Z,1.50
2023-03-30T22:44:50.313Z,1.30
2023-03-30T22:47:18.545Z,1.40
2023-03-30T22:49:47.261Z,1.30
2023-03-30T22:52:15.503Z,1.38
2023-03-30T22:54:43.791Z,1.20
2023-03-30T22:57:13.503Z,1.40
2023-03-30T22:59:42.363Z,1.60
2023-03-30T23:02:10.584Z,1.60
2023-03-30T23:04:40.008Z,1.20
2023-03-30T23:07:08.793Z,1.10
2023-03-30T23:09:38.683Z,1.23
2023-03-30T23:12:08.377Z,1.27
2023-03-30T23:14:39.252Z,1.17
2023-03-30T23:17:25.511Z,1.10
2023-03-30T23:19:54.062Z,1.70
2023-03-30T23:22:22.361Z,1.33
2023-03-30T23:24:50.918Z,1.30
2023-03-30T23:27:19.538Z,1.00
2023-03-30T23:29:49.156Z,1.55
2023-03-30T23:32:17.446Z,1.42
2023-03-30T23:34:46.676Z,1.00
2023-03-30T23:37:15.100Z,1.80
2023-03-30T23:39:43.380Z,1.10
2023-03-30T23:42:11.653Z,1.23
2023-03-30T23:44:39.885Z,1.20
2023-03-30T23:47:09.537Z,0.93
2023-03-30T23:49:37.819Z,1.10
2023-03-30T23:52:06.321Z,1.00
2023-03-30T23:54:37.281Z,1.40
2023-03-30T23:57:07.223Z,1.10
2023-03-30T23:59:37.814Z,1.00
